createdAt,value
2023-02-10T00:02:59.631Z,-0.44
2023-02-10T00:07:11.725Z,-0.42
2023-02-10T00:11:15.314Z,-0.47
2023-02-10T00:15:19.336Z,-0.57
2023-02-10T00:19:22.929Z,-0.59
2023-02-10T00:23:05.890Z,-0.61
2023-02-10T00:27:08.068Z,-0.60
2023-02-10T00:31:01.116Z,-0.57
2023-02-10T00:35:03.931Z,-0.57
2023-02-10T00:39:07.565Z,-0.60
2023-02-10T00:43:11.556Z,-0.62
2023-02-10T00:47:15.128Z,-0.65
2023-02-10T00:51:19.246Z,-0.65
2023-02-10T00:55:15.983Z,-0.71
2023-02-10T00:59:19.672Z,-0.70
2023-02-10T01:03:22.965Z,-0.70
2023-02-10T01:07:26.558Z,-0.67
2023-02-10T01:11:30.705Z,-0.66
2023-02-10T01:23:19.285Z,-0.50
2023-02-10T01:27:00.103Z,-0.50
2023-02-10T01:31:03.887Z,-0.46
2023-02-10T01:35:07.749Z,-0.48
2023-02-10T01:38:52.578Z,-0.47
2023-02-10T01:42:56.246Z,-0.47
2023-02-10T01:46:45.151Z,-0.46
2023-02-10T01:50:47.632Z,-0.50
2023-02-10T01:59:51.650Z,-0.45
2023-02-10T02:03:48.011Z,-0.42
2023-02-10T02:12:36.340Z,-0.42
2023-02-10T02:16:51.965Z,-0.44
2023-02-10T02:21:04.481Z,-0.46
2023-02-10T02:25:32.419Z,-0.42
2023-02-10T02:30:03.586Z,-0.34
2023-02-10T02:34:13.749Z,-0.38
2023-02-10T02:38:23.388Z,-0.43
2023-02-10T02:42:09.105Z,-0.36
2023-02-10T02:46:37.111Z,-0.41
2023-02-10T02:51:01.806Z,-0.51
2023-02-10T02:55:14.194Z,-0.55
2023-02-10T02:59:23.547Z,-0.59
2023-02-10T03:03:27.136Z,-0.61
2023-02-10T03:07:29.487Z,-0.65
2023-02-10T03:11:22.190Z,-0.65
2023-02-10T03:15:18.702Z,-0.58
2023-02-10T03:19:21.295Z,-0.53
2023-02-10T03:23:54.069Z,-0.54
2023-02-10T03:27:20.217Z,-0.58
2023-02-10T03:31:23.949Z,-0.54
2023-02-10T03:35:25.072Z,-0.58
2023-02-10T03:39:21.557Z,-0.61
2023-02-10T03:43:23.173Z,-0.57
2023-02-10T03:52:15.193Z,-0.65
2023-02-10T03:56:11.458Z,-0.69
2023-02-10T04:00:15.107Z,-0.69
2023-02-10T04:04:17.765Z,-0.77
2023-02-10T04:08:04.045Z,-0.72
2023-02-10T04:12:00.333Z,-0.72
2023-02-10T04:16:04.035Z,-0.67
2023-02-10T04:20:05.258Z,-0.63
2023-02-10T04:29:12.499Z,-0.58
2023-02-10T04:33:01.320Z,-0.56
2023-02-10T04:50:03.909Z,-0.60
2023-02-10T04:54:00.283Z,-0.60
2023-02-10T04:57:56.460Z,-0.63
2023-02-10T05:01:50.125Z,-0.64
2023-02-10T05:05:30.789Z,-0.53
2023-02-10T05:09:20.064Z,-0.53
2023-02-10T05:13:07.777Z,-0.55
2023-02-10T05:17:02.903Z,-0.57
2023-02-10T05:21:06.567Z,-0.58
2023-02-10T05:29:34.909Z,-0.73
2023-02-10T05:33:40.186Z,-0.73
2023-02-10T05:37:35.616Z,-0.70
2023-02-10T05:46:20.512Z,-0.61
2023-02-10T05:55:17.817Z,-0.53
2023-02-10T05:59:13.983Z,-0.55
2023-02-10T06:03:10.775Z,-0.64
2023-02-10T06:07:14.407Z,-0.68
2023-02-10T06:10:58.812Z,-0.67
2023-02-10T06:14:54.138Z,-0.64
2023-02-10T06:18:56.780Z,-0.66
2023-02-10T06:22:49.346Z,-0.67
2023-02-10T06:26:19.075Z,-0.69
2023-02-10T06:30:15.774Z,-0.71
2023-02-10T06:34:10.771Z,-0.72
2023-02-10T06:38:12.988Z,-0.69
2023-02-10T06:42:15.532Z,-0.63
2023-02-10T06:50:54.076Z,-0.46
2023-02-10T06:54:21.117Z,-0.40
2023-02-10T06:58:00.499Z,-0.40
2023-02-10T07:06:53.824Z,-0.45
2023-02-10T07:11:08.105Z,-0.40
2023-02-10T07:15:09.944Z,-0.37
2023-02-10T07:19:06.325Z,-0.33
2023-02-10T07:23:08.854Z,-0.24
2023-02-10T07:27:10.213Z,-0.14
2023-02-10T07:31:05.360Z,-0.14
2023-02-10T07:34:50.686Z,-0.12
2023-02-10T07:39:04.324Z,-0.11
2023-02-10T07:47:42.772Z,-0.05
2023-02-10T07:51:48.128Z,-0.06
2023-02-10T07:55:22.124Z,0.01
2023-02-10T07:59:25.677Z,0.10
2023-02-10T08:03:15.098Z,0.27
2023-02-10T08:07:21.816Z,0.31
2023-02-10T08:11:38.717Z,0.26
2023-02-10T08:15:34.857Z,0.36
2023-02-10T08:19:41.547Z,0.45
2023-02-10T08:23:45.150Z,0.50
2023-02-10T08:27:41.604Z,0.46
2023-02-10T08:31:45.320Z,0.48
2023-02-10T08:35:48.225Z,0.45
2023-02-10T08:39:52.123Z,0.44
2023-02-10T08:43:56.040Z,0.45
2023-02-10T08:48:00.361Z,0.51
2023-02-10T08:52:04.075Z,0.50
2023-02-10T08:56:00.410Z,0.45
2023-02-10T09:00:08.585Z,0.39
2023-02-10T09:04:12.220Z,0.32
2023-02-10T09:08:15.779Z,0.34
2023-02-10T09:12:12.535Z,0.38
2023-02-10T09:16:16.188Z,0.52
2023-02-10T09:20:19.795Z,0.61
2023-02-10T09:24:01.951Z,0.69
2023-02-10T09:28:05.561Z,0.84
2023-02-10T09:32:03.335Z,0.91
2023-02-10T09:35:41.716Z,0.97
2023-02-10T09:39:29.665Z,1.05
2023-02-10T09:43:31.549Z,1.07
2023-02-10T09:47:43.965Z,1.04
2023-02-10T09:51:52.589Z,1.08
2023-02-10T09:56:02.224Z,1.21
2023-02-10T10:00:05.807Z,1.26
2023-02-10T10:04:05.990Z,1.32
2023-02-10T10:08:12.298Z,1.46
2023-02-10T10:12:25.611Z,1.47
2023-02-10T10:16:19.741Z,1.46
2023-02-10T10:20:30.075Z,1.48
2023-02-10T10:24:39.131Z,1.35
2023-02-10T10:28:44.503Z,1.32
2023-02-10T10:32:43.576Z,1.50
2023-02-10T10:36:40.086Z,1.53
2023-02-10T10:40:44.299Z,1.65
2023-02-10T10:44:33.852Z,1.67
2023-02-10T10:48:32.389Z,1.66
2023-02-10T10:52:29.883Z,1.59
2023-02-10T10:56:34.885Z,1.70
2023-02-10T11:00:37.733Z,1.90
2023-02-10T11:04:43.854Z,2.03
2023-02-10T11:08:39.494Z,2.08
2023-02-10T11:12:46.512Z,2.21
2023-02-10T11:16:50.222Z,2.42
2023-02-10T11:20:54.407Z,2.61
2023-02-10T11:25:01.223Z,2.69
2023-02-10T11:29:06.249Z,2.71
2023-02-10T11:33:16.999Z,2.70
2023-02-10T11:37:20.806Z,2.74
2023-02-10T11:41:11.936Z,2.85
2023-02-10T11:45:33.547Z,2.87
2023-02-10T11:49:40.473Z,2.87
2023-02-10T11:53:44.544Z,2.96
2023-02-10T11:57:51.910Z,2.88
2023-02-10T12:02:07.265Z,2.85
2023-02-10T12:06:40.160Z,3.07
2023-02-10T12:10:41.212Z,3.11
2023-02-10T12:14:56.982Z,3.05
2023-02-10T12:19:15.491Z,3.09
2023-02-10T12:23:16.767Z,3.15
2023-02-10T12:27:32.535Z,3.06
2023-02-10T12:31:43.279Z,3.08
2023-02-10T12:35:46.913Z,3.23
2023-02-10T12:40:03.213Z,3.36
2023-02-10T12:44:20.604Z,3.34
2023-02-10T12:48:22.041Z,3.34
2023-02-10T12:52:30.653Z,3.29
2023-02-10T12:56:43.343Z,3.24
2023-02-10T13:00:48.576Z,3.37
2023-02-10T13:05:07.953Z,3.38
2023-02-10T13:09:11.529Z,3.43
2023-02-10T13:13:15.372Z,3.42
2023-02-10T13:17:21.760Z,3.42
2023-02-10T13:21:30.627Z,3.47
2023-02-10T13:25:40.255Z,3.51
2023-02-10T13:29:40.681Z,3.51
2023-02-10T13:34:09.354Z,3.43
2023-02-10T13:38:19.970Z,3.40
2023-02-10T13:42:40.777Z,3.39
2023-02-10T13:46:35.326Z,3.43
2023-02-10T13:50:38.957Z,3.47
2023-02-10T13:54:42.658Z,3.45
2023-02-10T13:58:35.410Z,3.47
2023-02-10T14:02:37.016Z,3.58
2023-02-10T14:06:37.639Z,3.68
2023-02-10T14:10:44.080Z,3.61
2023-02-10T14:15:03.170Z,3.59
2023-02-10T14:19:09.627Z,3.53
2023-02-10T14:23:19.869Z,3.50
2023-02-10T14:27:27.521Z,3.52
2023-02-10T14:31:47.187Z,3.52
2023-02-10T14:35:57.190Z,3.38
2023-02-10T14:40:01.288Z,3.33
2023-02-10T14:43:53.713Z,3.30
2023-02-10T14:48:03.323Z,3.27
2023-02-10T14:51:51.933Z,3.34
2023-02-10T14:55:38.302Z,3.37
2023-02-10T14:59:27.526Z,3.32
2023-02-10T15:03:13.728Z,3.35
2023-02-10T15:07:08.275Z,3.38
2023-02-10T15:10:51.181Z,3.39
2023-02-10T15:14:54.991Z,3.39
2023-02-10T15:19:01.545Z,3.40
2023-02-10T15:23:21.850Z,3.42
2023-02-10T15:26:44.794Z,3.37
2023-02-10T15:30:38.911Z,3.29
2023-02-10T15:34:05.468Z,3.28
2023-02-10T15:37:39.942Z,3.28
2023-02-10T15:41:43.583Z,3.24
2023-02-10T15:45:33.254Z,3.23
2023-02-10T15:49:19.570Z,3.25
2023-02-10T15:53:13.986Z,3.19
2023-02-10T15:57:07.553Z,3.10
2023-02-10T16:00:57.344Z,2.97
2023-02-10T16:04:55.131Z,2.95
2023-02-10T16:08:51.937Z,2.95
2023-02-10T16:12:55.570Z,2.95
2023-02-10T16:16:01.090Z,2.95
2023-02-10T16:19:57.269Z,2.95
2023-02-10T16:23:51.876Z,2.90
2023-02-10T16:27:28.199Z,2.89
2023-02-10T16:31:31.859Z,2.89
2023-02-10T16:35:28.304Z,2.92
2023-02-10T16:39:31.695Z,2.87
2023-02-10T16:43:06.480Z,2.86
2023-02-10T16:46:57.822Z,2.75
2023-02-10T16:51:07.645Z,2.74
2023-02-10T16:55:20.854Z,2.74
2023-02-10T16:59:15.614Z,2.73
2023-02-10T17:03:16.631Z,2.76
2023-02-10T17:07:33.488Z,2.76
2023-02-10T17:11:35.768Z,2.76
2023-02-10T17:15:29.833Z,2.78
2023-02-10T17:19:33.797Z,2.81
2023-02-10T17:23:15.261Z,2.85
2023-02-10T17:27:18.614Z,2.77
2023-02-10T17:31:22.315Z,2.73
2023-02-10T17:35:26.120Z,2.73
2023-02-10T17:39:48.621Z,2.70
2023-02-10T17:43:46.412Z,2.76
2023-02-10T17:47:42.591Z,2.83
2023-02-10T17:51:46.750Z,2.74
2023-02-10T17:55:50.611Z,2.68
2023-02-10T17:59:54.735Z,2.71
2023-02-10T18:03:59.766Z,2.69
2023-02-10T18:07:56.726Z,2.74
2023-02-10T18:16:18.763Z,2.72
2023-02-10T18:20:23.433Z,2.72
2023-02-10T18:24:26.193Z,2.72
2023-02-10T18:28:28.489Z,2.70
2023-02-10T18:32:32.271Z,2.66
2023-02-10T18:36:35.939Z,2.62
2023-02-10T18:40:29.872Z,2.54
2023-02-10T18:44:22.547Z,2.57
2023-02-10T18:48:26.100Z,2.52
2023-02-10T18:57:05.660Z,2.38
2023-02-10T19:01:09.454Z,2.37
2023-02-10T19:05:13.088Z,2.37
2023-02-10T19:09:09.375Z,2.34
2023-02-10T19:13:02.739Z,2.31
2023-02-10T19:17:22.021Z,2.30
2023-02-10T19:21:14.551Z,2.21
2023-02-10T19:25:18.166Z,2.12
2023-02-10T19:29:22.229Z,2.06
2023-02-10T19:33:25.846Z,2.04
2023-02-10T19:37:29.457Z,2.02
2023-02-10T19:41:42.308Z,1.93
2023-02-10T19:45:23.751Z,1.86
2023-02-10T19:54:02.267Z,1.96
2023-02-10T20:02:51.695Z,1.90
2023-02-10T20:06:33.677Z,1.86
2023-02-10T20:10:30.232Z,1.83
2023-02-10T20:14:33.799Z,1.84
2023-02-10T20:18:45.699Z,1.88
2023-02-10T20:22:49.790Z,1.91
2023-02-10T20:26:52.542Z,1.87
2023-02-10T20:31:13.673Z,1.85
2023-02-10T20:35:10.036Z,1.84
2023-02-10T20:39:13.624Z,1.84
2023-02-10T20:43:09.809Z,1.81
2023-02-10T20:47:13.530Z,1.77
2023-02-10T20:51:13.236Z,1.74
2023-02-10T20:55:17.381Z,1.72
2023-02-10T20:59:21.735Z,1.70
2023-02-10T21:03:15.890Z,1.74
2023-02-10T21:07:18.345Z,1.77
2023-02-10T21:11:22.123Z,1.86
2023-02-10T21:19:56.784Z,1.90
2023-02-10T21:23:59.467Z,1.88
2023-02-10T21:27:45.686Z,1.84
2023-02-10T21:31:48.098Z,1.81
2023-02-10T21:35:38.483Z,1.91
2023-02-10T21:39:46.134Z,1.88
2023-02-10T21:43:42.508Z,1.93
2023-02-10T21:47:46.564Z,1.93
2023-02-10T21:51:43.172Z,1.90
2023-02-10T21:55:57.894Z,1.85
2023-02-10T22:00:02.329Z,1.87
2023-02-10T22:04:06.618Z,1.90
2023-02-10T22:08:04.469Z,1.90
2023-02-10T22:12:02.575Z,1.98
2023-02-10T22:20:53.124Z,1.92
2023-02-10T22:24:56.724Z,1.95
2023-02-10T22:29:00.390Z,2.05
2023-02-10T22:32:49.337Z,2.11
2023-02-10T22:41:15.042Z,2.05
2023-02-10T22:49:39.505Z,2.15
2023-02-10T22:53:43.143Z,2.16
2023-02-10T22:57:46.816Z,2.17
2023-02-10T23:01:30.106Z,2.06
2023-02-10T23:10:36.639Z,2.03
2023-02-10T23:19:35.228Z,2.02
2023-02-10T23:23:38.802Z,1.95
2023-02-10T23:27:58.128Z,1.89
2023-02-10T23:32:01.814Z,1.91
2023-02-10T23:36:20.062Z,1.80
2023-02-10T23:40:23.652Z,1.76
2023-02-10T23:44:27.274Z,1.79
2023-02-10T23:48:39.132Z,1.77
2023-02-10T23:52:35.465Z,1.69
